createdAt,value
2022-10-17T00:00:01.074Z,53.92
2022-10-17T00:02:28.215Z,55.42
2022-10-17T00:04:55.490Z,55.05
2022-10-17T00:07:22.701Z,54.72
2022-10-17T00:09:49.779Z,52.70
2022-10-17T00:12:16.879Z,54.53
2022-10-17T00:14:44.012Z,53.10
2022-10-17T00:17:11.151Z,51.47
2022-10-17T00:19:38.072Z,52.53
2022-10-17T00:22:04.957Z,54.05
2022-10-17T00:24:32.446Z,52.72
2022-10-17T00:27:00.026Z,52.38
2022-10-17T00:29:28.017Z,51.35
2022-10-17T00:31:56.495Z,50.92
2022-10-17T00:34:24.842Z,51.70
2022-10-17T00:36:52.214Z,50.92
2022-10-17T00:39:19.908Z,48.38
2022-10-17T00:41:47.134Z,47.83
2022-10-17T00:44:32.593Z,48.88
2022-10-17T00:47:04.126Z,51.45
2022-10-17T00:49:34.933Z,50.25
2022-10-17T00:52:06.411Z,49.50
2022-10-17T00:54:36.911Z,48.92
2022-10-17T00:57:04.930Z,50.70
2022-10-17T00:59:34.370Z,51.83
2022-10-17T01:02:10.452Z,49.40
2022-10-17T01:04:43.006Z,49.58
2022-10-17T01:07:10.668Z,50.22
2022-10-17T01:09:38.721Z,51.40
2022-10-17T01:12:14.522Z,50.40
2022-10-17T01:14:41.419Z,51.00
2022-10-17T01:17:30.268Z,50.28
2022-10-17T01:20:06.057Z,50.08
2022-10-17T01:22:41.198Z,54.20
2022-10-17T01:25:23.868Z,53.78
2022-10-17T01:28:12.616Z,49.58
2022-10-17T01:31:00.584Z,52.53
2022-10-17T01:33:59.939Z,49.75
2022-10-17T01:36:50.949Z,49.08
2022-10-17T01:39:22.715Z,48.85
2022-10-17T01:42:04.436Z,51.53
2022-10-17T01:45:03.321Z,51.42
2022-10-17T01:47:32.864Z,51.35
2022-10-17T01:50:12.344Z,53.22
2022-10-17T01:52:45.213Z,55.20
2022-10-17T01:55:27.227Z,55.00
2022-10-17T02:00:32.673Z,49.92
2022-10-17T02:03:02.811Z,50.50
2022-10-17T02:05:37.761Z,51.97
2022-10-17T02:08:05.343Z,52.38
2022-10-17T02:10:44.133Z,52.08
2022-10-17T02:13:45.341Z,54.95
2022-10-17T02:17:02.901Z,56.47
2022-10-17T02:19:37.995Z,55.08
2022-10-17T02:22:14.303Z,53.17
2022-10-17T02:25:09.690Z,51.10
2022-10-17T02:28:06.209Z,51.90
2022-10-17T02:30:48.374Z,49.47
2022-10-17T02:33:24.280Z,51.75
2022-10-17T02:35:56.442Z,49.85
2022-10-17T02:38:24.911Z,50.97
2022-10-17T02:40:53.900Z,48.92
2022-10-17T02:43:21.944Z,47.80
2022-10-17T02:45:50.171Z,50.90
2022-10-17T02:48:34.698Z,53.65
2022-10-17T02:51:24.312Z,52.95
2022-10-17T02:53:58.731Z,52.58
2022-10-17T02:56:27.422Z,55.35
2022-10-17T02:58:58.852Z,58.20
2022-10-17T03:01:26.276Z,53.75
2022-10-17T03:04:08.620Z,53.38
2022-10-17T03:06:35.600Z,55.67
2022-10-17T03:09:02.421Z,50.80
2022-10-17T03:11:29.330Z,51.80
2022-10-17T03:13:56.345Z,52.38
2022-10-17T03:16:23.260Z,54.53
2022-10-17T03:18:50.326Z,54.53
2022-10-17T03:21:17.221Z,55.22
2022-10-17T03:23:43.991Z,56.22
2022-10-17T03:26:10.916Z,54.03
2022-10-17T03:28:37.773Z,56.78
2022-10-17T03:31:13.984Z,56.45
2022-10-17T03:33:40.796Z,54.97
2022-10-17T03:36:13.561Z,51.58
2022-10-17T03:38:40.651Z,51.67
2022-10-17T03:41:07.977Z,51.22
2022-10-17T03:43:35.215Z,51.13
2022-10-17T03:46:02.753Z,50.30
2022-10-17T03:48:30.937Z,50.75
2022-10-17T03:51:03.261Z,47.50
2022-10-17T03:53:30.179Z,50.40
2022-10-17T03:55:57.909Z,47.42
2022-10-17T03:58:24.751Z,48.63
2022-10-17T04:00:52.512Z,49.30
2022-10-17T04:03:19.348Z,49.35
2022-10-17T04:05:46.199Z,48.30
2022-10-17T04:08:13.012Z,47.65
2022-10-17T04:10:39.787Z,47.75
2022-10-17T04:13:06.832Z,49.47
2022-10-17T04:15:33.586Z,50.65
2022-10-17T04:18:00.373Z,50.30
2022-10-17T04:20:27.257Z,50.03
2022-10-17T04:22:54.048Z,49.03
2022-10-17T04:25:20.842Z,48.22
2022-10-17T04:27:49.043Z,48.47
2022-10-17T04:30:16.135Z,51.88
2022-10-17T04:32:42.933Z,51.00
2022-10-17T04:35:13.020Z,50.60
2022-10-17T04:37:39.787Z,49.15
2022-10-17T04:40:07.250Z,47.90
2022-10-17T04:42:34.085Z,50.40
2022-10-17T04:45:00.907Z,51.40
2022-10-17T04:47:27.662Z,47.83
2022-10-17T04:49:54.460Z,47.45
2022-10-17T04:52:21.305Z,46.83
2022-10-17T04:54:48.102Z,46.38
2022-10-17T04:57:15.238Z,44.65
2022-10-17T04:59:42.049Z,48.72
2022-10-17T05:02:08.956Z,49.30
2022-10-17T05:04:35.819Z,43.50
2022-10-17T05:07:02.711Z,43.42
2022-10-17T05:09:30.066Z,43.10
2022-10-17T05:11:56.936Z,42.15
2022-10-17T05:14:23.902Z,44.38
2022-10-17T05:16:50.810Z,45.25
2022-10-17T05:19:18.589Z,45.67
2022-10-17T05:21:45.454Z,44.40
2022-10-17T05:24:14.991Z,41.92
2022-10-17T05:26:42.273Z,42.75
2022-10-17T05:29:20.967Z,41.22
2022-10-17T05:31:53.853Z,43.30
2022-10-17T05:34:20.922Z,42.80
2022-10-17T05:36:47.725Z,42.05
2022-10-17T05:39:15.218Z,41.10
2022-10-17T05:41:41.975Z,42.30
2022-10-17T05:44:08.752Z,43.58
2022-10-17T05:46:35.912Z,43.80
2022-10-17T05:49:10.635Z,41.20
2022-10-17T05:51:46.253Z,40.42
2022-10-17T05:54:12.988Z,39.30
2022-10-17T05:56:39.939Z,40.90
2022-10-17T05:59:06.767Z,39.25
2022-10-17T06:01:33.638Z,40.40
2022-10-17T06:04:00.434Z,39.72
2022-10-17T06:06:27.304Z,38.88
2022-10-17T06:08:54.070Z,40.08
2022-10-17T06:11:20.813Z,38.55
2022-10-17T06:13:47.600Z,41.72
2022-10-17T06:16:14.392Z,40.53
2022-10-17T06:18:41.173Z,41.67
2022-10-17T06:21:10.397Z,39.85
2022-10-17T06:23:37.424Z,39.25
2022-10-17T06:26:06.107Z,39.38
2022-10-17T06:28:33.480Z,42.58
2022-10-17T06:31:05.320Z,42.20
2022-10-17T06:36:07.772Z,42.83
2022-10-17T06:41:19.481Z,47.83
2022-10-17T06:43:47.457Z,47.20
2022-10-17T06:46:16.662Z,46.63
2022-10-17T06:48:47.056Z,46.17
2022-10-17T06:51:14.234Z,44.58
2022-10-17T06:53:44.054Z,46.15
2022-10-17T06:56:11.919Z,45.47
2022-10-17T06:58:40.195Z,45.83
2022-10-17T07:04:00.716Z,42.28
2022-10-17T07:06:29.704Z,43.65
2022-10-17T07:08:57.088Z,42.85
2022-10-17T07:11:27.993Z,43.75
2022-10-17T07:13:54.888Z,47.17
2022-10-17T07:16:22.010Z,51.45
2022-10-17T07:18:52.501Z,53.35
2022-10-17T07:21:19.630Z,47.15
2022-10-17T07:23:46.991Z,48.22
2022-10-17T07:26:16.890Z,52.70
2022-10-17T07:36:49.063Z,57.38
2022-10-17T07:39:18.401Z,56.40
2022-10-17T07:41:45.804Z,68.70
2022-10-17T07:44:14.078Z,71.78
2022-10-17T07:46:41.706Z,67.65
2022-10-17T07:49:13.553Z,60.38
2022-10-17T07:51:40.451Z,71.68
2022-10-17T07:56:55.505Z,64.55
2022-10-17T07:59:23.379Z,62.67
2022-10-17T08:01:50.562Z,64.55
2022-10-17T08:04:18.195Z,62.38
2022-10-17T08:06:45.288Z,62.75
2022-10-17T08:09:12.717Z,61.28
2022-10-17T08:11:39.774Z,62.22
2022-10-17T08:14:07.548Z,61.75
2022-10-17T08:16:34.566Z,60.85
2022-10-17T08:19:01.789Z,57.97
2022-10-17T08:21:29.330Z,58.30
2022-10-17T08:23:56.984Z,61.83
2022-10-17T08:26:25.742Z,60.22
2022-10-17T08:28:55.191Z,58.58
2022-10-17T08:31:23.076Z,60.47
2022-10-17T08:33:50.764Z,59.22
2022-10-17T08:36:20.281Z,57.38
2022-10-17T08:38:52.853Z,55.92
2022-10-17T08:41:45.147Z,54.53
2022-10-17T08:44:28.472Z,50.60
2022-10-17T08:47:02.165Z,50.47
2022-10-17T08:49:38.671Z,48.30
2022-10-17T08:52:34.752Z,44.67
2022-10-17T08:55:11.583Z,41.90
2022-10-17T08:57:38.853Z,42.88
2022-10-17T09:00:17.156Z,43.38
2022-10-17T09:03:05.052Z,39.67
2022-10-17T09:05:42.234Z,38.00
2022-10-17T09:08:33.608Z,37.25
2022-10-17T09:11:18.463Z,35.65
2022-10-17T09:14:03.450Z,35.25
2022-10-17T09:16:54.664Z,32.58
2022-10-17T09:19:32.216Z,33.80
2022-10-17T09:22:04.414Z,30.65
2022-10-17T09:24:44.190Z,32.60
2022-10-17T09:27:41.533Z,30.73
2022-10-17T09:51:33.263Z,26.80
2022-10-17T09:54:04.218Z,26.30
2022-10-17T10:05:07.508Z,24.65
2022-10-17T10:07:39.546Z,24.33
2022-10-17T10:20:43.342Z,24.80
2022-10-17T10:23:18.781Z,24.83
2022-10-17T10:31:08.944Z,25.10
2022-10-17T10:33:41.958Z,26.35
2022-10-17T10:36:12.346Z,23.90
2022-10-17T10:38:42.703Z,24.60
2022-10-17T10:41:11.453Z,25.23
2022-10-17T10:46:29.141Z,23.50
2022-10-17T11:08:01.557Z,23.85
2022-10-17T11:16:17.534Z,24.52
2022-10-17T11:19:26.018Z,23.73
2022-10-17T11:22:04.976Z,23.08
2022-10-17T11:24:57.239Z,24.55
2022-10-17T11:27:25.007Z,23.00
2022-10-17T11:29:52.109Z,21.20
2022-10-17T11:32:28.690Z,23.52
2022-10-17T11:35:02.366Z,22.58
2022-10-17T11:37:39.513Z,21.52
2022-10-17T11:40:32.267Z,22.60
2022-10-17T11:43:09.816Z,22.77
2022-10-17T11:45:46.250Z,23.70
2022-10-17T11:48:26.115Z,22.02
2022-10-17T11:54:28.448Z,22.85
2022-10-17T11:57:43.064Z,21.60
2022-10-17T12:00:35.784Z,22.42
2022-10-17T12:03:32.579Z,21.88
2022-10-17T12:06:35.313Z,22.98
2022-10-17T12:09:37.417Z,25.58
2022-10-17T12:14:34.667Z,25.27
2022-10-17T12:25:06.577Z,25.42
2022-10-17T12:27:36.402Z,26.17
2022-10-17T12:30:22.963Z,24.55
2022-10-17T12:35:39.420Z,25.05
2022-10-17T12:38:21.224Z,136.85
2022-10-17T12:52:05.940Z,23.02
2022-10-17T12:57:39.200Z,23.38
2022-10-17T13:00:18.907Z,24.73
2022-10-17T13:05:37.137Z,25.23
2022-10-17T13:21:37.627Z,23.38
2022-10-17T13:37:38.188Z,24.75
2022-10-17T13:40:24.825Z,25.02
2022-10-17T13:42:55.416Z,25.02
2022-10-17T13:48:18.212Z,24.27
2022-10-17T13:50:50.390Z,22.90
2022-10-17T13:53:26.917Z,24.38
2022-10-17T13:56:09.783Z,25.33
2022-10-17T13:58:57.470Z,24.40
2022-10-17T14:01:30.001Z,25.48
2022-10-17T14:04:08.505Z,25.38
2022-10-17T14:06:47.928Z,26.45
2022-10-17T14:09:21.800Z,27.48
2022-10-17T14:12:11.264Z,26.58
2022-10-17T14:15:08.758Z,25.42
2022-10-17T14:17:31.314Z,27.17
2022-10-17T14:20:40.427Z,27.08
2022-10-17T14:23:17.500Z,28.45
2022-10-17T14:25:40.899Z,27.52
2022-10-17T14:28:12.732Z,26.30
2022-10-17T14:30:56.634Z,27.73
2022-10-17T14:33:29.237Z,29.10
2022-10-17T14:35:58.770Z,28.38
2022-10-17T14:38:27.531Z,30.33
2022-10-17T14:44:08.985Z,30.27
2022-10-17T14:46:39.079Z,31.25
2022-10-17T14:49:23.257Z,29.80
2022-10-17T14:52:16.762Z,30.05
2022-10-17T14:54:48.441Z,30.15
2022-10-17T14:57:19.885Z,30.37
2022-10-17T14:59:55.308Z,32.28
2022-10-17T15:02:24.615Z,31.75
2022-10-17T15:04:52.225Z,33.38
2022-10-17T15:07:21.216Z,32.97
2022-10-17T15:09:50.321Z,34.97
2022-10-17T15:12:19.473Z,33.67
2022-10-17T15:14:48.501Z,32.35
2022-10-17T15:17:22.446Z,30.83
2022-10-17T15:19:50.784Z,32.05
2022-10-17T15:22:18.320Z,34.38
2022-10-17T15:24:48.514Z,33.10
2022-10-17T15:27:22.200Z,31.52
2022-10-17T15:32:34.071Z,34.80
2022-10-17T15:35:01.002Z,34.42
2022-10-17T15:37:35.485Z,33.53
2022-10-17T15:40:05.069Z,36.15
2022-10-17T15:42:32.593Z,35.30
2022-10-17T15:45:00.806Z,35.55
2022-10-17T15:47:34.310Z,33.83
2022-10-17T15:50:02.395Z,34.35
2022-10-17T15:52:30.089Z,34.10
2022-10-17T15:54:59.595Z,32.83
2022-10-17T15:57:34.047Z,35.40
2022-10-17T16:00:01.771Z,34.80
2022-10-17T16:02:29.248Z,35.20
2022-10-17T16:04:56.320Z,32.80
2022-10-17T16:07:23.407Z,34.55
2022-10-17T16:09:50.301Z,34.20
2022-10-17T16:12:29.169Z,35.53
2022-10-17T16:14:56.739Z,35.22
2022-10-17T16:17:23.779Z,37.13
2022-10-17T16:19:50.763Z,38.53
2022-10-17T16:22:23.414Z,38.05
2022-10-17T16:24:50.737Z,37.30
2022-10-17T16:27:17.614Z,37.53
2022-10-17T16:29:44.577Z,40.70
2022-10-17T16:32:11.399Z,39.95
2022-10-17T16:34:38.271Z,37.58
2022-10-17T16:37:05.056Z,38.17
2022-10-17T16:39:31.858Z,36.83
2022-10-17T16:41:58.808Z,38.92
2022-10-17T16:44:25.888Z,38.05
2022-10-17T16:46:52.699Z,35.80
2022-10-17T16:49:19.462Z,37.72
2022-10-17T16:51:46.351Z,37.45
2022-10-17T16:54:13.102Z,37.20
2022-10-17T16:56:39.888Z,38.55
2022-10-17T16:59:06.806Z,39.13
2022-10-17T17:01:33.649Z,40.47
2022-10-17T17:04:01.182Z,40.05
2022-10-17T17:06:29.537Z,38.42
2022-10-17T17:08:57.636Z,42.50
2022-10-17T17:11:26.260Z,40.90
2022-10-17T17:13:56.616Z,41.08
2022-10-17T17:16:25.753Z,43.05
2022-10-17T17:18:57.984Z,42.33
2022-10-17T17:21:24.929Z,41.95
2022-10-17T17:23:51.897Z,38.70
2022-10-17T17:26:23.204Z,40.13
2022-10-17T17:28:50.581Z,38.72
2022-10-17T17:31:23.460Z,40.60
2022-10-17T17:33:51.634Z,39.53
2022-10-17T17:36:22.275Z,47.80
2022-10-17T17:38:50.168Z,43.97
2022-10-17T17:41:19.014Z,38.50
2022-10-17T17:43:47.204Z,38.85
2022-10-17T17:46:16.647Z,41.35
2022-10-17T17:48:46.381Z,40.35
2022-10-17T17:51:20.674Z,40.33
2022-10-17T17:53:48.538Z,38.80
2022-10-17T17:56:18.717Z,40.33
2022-10-17T17:58:47.068Z,39.83
2022-10-17T18:01:19.158Z,41.65
2022-10-17T18:03:46.331Z,46.08
2022-10-17T18:06:13.706Z,44.60
2022-10-17T18:08:43.697Z,42.08
2022-10-17T18:11:10.686Z,41.63
2022-10-17T18:13:37.713Z,37.92
2022-10-17T18:16:13.181Z,38.20
2022-10-17T18:18:42.341Z,38.20
2022-10-17T18:21:11.236Z,39.75
2022-10-17T18:23:47.630Z,39.80
2022-10-17T18:26:15.161Z,37.75
2022-10-17T18:28:43.394Z,39.25
2022-10-17T18:31:24.493Z,41.78
2022-10-17T18:33:52.963Z,49.20
2022-10-17T18:36:21.048Z,50.42
2022-10-17T18:38:48.417Z,45.78
2022-10-17T18:41:21.003Z,40.83
2022-10-17T18:43:49.080Z,41.40
2022-10-17T18:46:18.928Z,46.53
2022-10-17T18:48:47.150Z,39.85
2022-10-17T18:51:15.721Z,38.28
2022-10-17T18:53:44.093Z,40.42
2022-10-17T18:56:11.534Z,40.83
2022-10-17T18:58:39.399Z,37.67
2022-10-17T19:01:10.811Z,36.47
2022-10-17T19:03:38.339Z,36.47
2022-10-17T19:06:07.970Z,35.20
2022-10-17T19:08:35.915Z,35.83
2022-10-17T19:11:14.068Z,40.05
2022-10-17T19:13:41.373Z,38.65
2022-10-17T19:16:10.519Z,38.08
2022-10-17T19:18:37.913Z,37.13
2022-10-17T19:21:07.024Z,41.55
2022-10-17T19:23:35.983Z,41.67
2022-10-17T19:26:11.907Z,37.50
2022-10-17T19:28:42.164Z,36.70
2022-10-17T19:31:09.142Z,36.15
2022-10-17T19:33:37.231Z,35.92
2022-10-17T19:36:07.791Z,36.50
2022-10-17T19:38:35.757Z,34.60
2022-10-17T19:41:10.648Z,34.67
2022-10-17T19:43:38.927Z,34.45
2022-10-17T19:46:08.437Z,34.67
2022-10-17T19:48:36.930Z,33.95
2022-10-17T19:51:08.897Z,36.28
2022-10-17T19:53:36.141Z,35.67
2022-10-17T19:56:03.682Z,33.88
2022-10-17T19:58:31.124Z,33.25
2022-10-17T20:01:01.223Z,36.47
2022-10-17T20:03:28.668Z,35.28
2022-10-17T20:05:55.811Z,35.80
2022-10-17T20:08:22.676Z,37.40
2022-10-17T20:10:49.467Z,38.03
2022-10-17T20:13:16.272Z,37.65
2022-10-17T20:15:43.062Z,45.78
2022-10-17T20:18:10.533Z,51.28
2022-10-17T20:20:37.951Z,48.47
2022-10-17T20:23:05.034Z,54.33
2022-10-17T20:25:33.462Z,44.72
2022-10-17T20:28:00.623Z,46.33
2022-10-17T20:30:27.379Z,43.78
2022-10-17T20:32:55.720Z,44.58
2022-10-17T20:35:22.871Z,40.63
2022-10-17T20:37:50.059Z,38.97
2022-10-17T20:40:34.083Z,38.70
2022-10-17T20:43:02.011Z,39.30
2022-10-17T20:45:43.687Z,34.28
2022-10-17T20:48:16.200Z,36.38
2022-10-17T20:50:43.953Z,35.17
2022-10-17T20:53:35.510Z,37.05
2022-10-17T20:56:07.843Z,37.38
2022-10-17T20:58:35.303Z,35.47
2022-10-17T21:01:07.205Z,33.13
2022-10-17T21:06:09.956Z,33.55
2022-10-17T21:08:36.708Z,37.05
2022-10-17T21:11:13.733Z,34.70
2022-10-17T21:13:41.675Z,33.65
2022-10-17T21:16:14.638Z,32.40
2022-10-17T21:18:41.880Z,32.50
2022-10-17T21:21:14.835Z,29.92
2022-10-17T21:23:43.603Z,30.65
2022-10-17T21:26:12.760Z,31.40
2022-10-17T21:28:40.832Z,32.10
2022-10-17T21:31:11.825Z,30.35
2022-10-17T21:33:39.534Z,31.10
2022-10-17T21:36:07.081Z,30.30
2022-10-17T21:38:38.549Z,30.05
2022-10-17T21:41:06.801Z,29.00
2022-10-17T21:43:34.752Z,30.17
2022-10-17T21:46:07.967Z,30.52
2022-10-17T21:48:35.628Z,29.10
2022-10-17T21:51:04.703Z,29.77
2022-10-17T21:53:31.681Z,29.83
2022-10-17T21:56:03.171Z,33.03
2022-10-17T21:58:30.428Z,33.33
2022-10-17T22:01:28.804Z,30.40
2022-10-17T22:03:59.014Z,29.85
2022-10-17T22:06:43.744Z,28.30
2022-10-17T22:09:24.172Z,28.10
2022-10-17T22:11:54.926Z,29.17
2022-10-17T22:14:23.500Z,28.73
2022-10-17T22:16:51.049Z,27.25
2022-10-17T22:19:21.465Z,29.08
2022-10-17T22:21:48.671Z,29.77
2022-10-17T22:24:17.650Z,29.67
2022-10-17T22:26:44.690Z,28.27
2022-10-17T22:29:12.108Z,28.02
2022-10-17T22:31:39.222Z,25.98
2022-10-17T22:34:06.901Z,27.27
2022-10-17T22:36:34.921Z,27.83
2022-10-17T22:39:01.957Z,25.65
2022-10-17T22:41:28.906Z,27.63
2022-10-17T22:43:55.740Z,28.02
2022-10-17T22:46:22.613Z,28.80
2022-10-17T22:48:49.437Z,28.00
2022-10-17T22:51:16.401Z,27.02
2022-10-17T22:53:43.290Z,28.10
2022-10-17T22:56:20.152Z,26.48
2022-10-17T22:58:47.551Z,26.50
2022-10-17T23:01:17.349Z,28.42
2022-10-17T23:03:44.243Z,28.23
2022-10-17T23:06:11.481Z,27.73
2022-10-17T23:08:38.882Z,28.50
2022-10-17T23:11:06.532Z,27.92
2022-10-17T23:13:33.516Z,28.98
2022-10-17T23:16:00.507Z,28.65
2022-10-17T23:18:27.514Z,28.55
2022-10-17T23:20:55.251Z,27.98
2022-10-17T23:23:22.303Z,29.50
2022-10-17T23:25:49.576Z,29.45
2022-10-17T23:28:17.334Z,28.88
2022-10-17T23:30:44.479Z,29.58
2022-10-17T23:33:12.927Z,28.10
2022-10-17T23:35:40.596Z,28.73
2022-10-17T23:38:07.474Z,29.20
2022-10-17T23:40:35.314Z,29.77
2022-10-17T23:43:03.061Z,27.95
2022-10-17T23:45:34.610Z,27.63
2022-10-17T23:48:03.096Z,28.58
2022-10-17T23:50:29.868Z,29.33
2022-10-17T23:52:56.642Z,28.15
2022-10-17T23:55:23.424Z,27.67
2022-10-17T23:57:50.224Z,27.08
